createdAt,value
2023-04-16T00:00:39.972Z,82.20
2023-04-16T00:01:42.011Z,81.92
2023-04-16T00:02:44.917Z,82.56
2023-04-16T00:03:47.079Z,82.13
2023-04-16T00:04:50.507Z,82.13
2023-04-16T00:05:55.795Z,81.98
2023-04-16T00:06:58.748Z,82.19
2023-04-16T00:08:00.756Z,82.20
2023-04-16T00:09:04.933Z,82.60
2023-04-16T00:10:08.045Z,82.19
2023-04-16T00:11:11.120Z,82.48
2023-04-16T00:12:12.920Z,82.06
2023-04-16T00:13:15.632Z,82.37
2023-04-16T00:14:17.682Z,81.94
2023-04-16T00:15:20.419Z,82.29
2023-04-16T00:16:25.546Z,82.36
2023-04-16T00:17:28.639Z,82.34
2023-04-16T00:18:30.899Z,82.05
2023-04-16T00:19:33.666Z,81.84
2023-04-16T00:20:35.515Z,81.96
2023-04-16T00:21:38.376Z,82.00
2023-04-16T00:22:40.290Z,81.78
2023-04-16T00:23:43.179Z,81.47
2023-04-16T00:24:46.314Z,82.04
2023-04-16T00:25:49.091Z,81.73
2023-04-16T00:26:51.151Z,81.42
2023-04-16T00:27:53.915Z,81.24
2023-04-16T00:28:55.704Z,81.76
2023-04-16T00:29:58.608Z,81.96
2023-04-16T00:31:01.446Z,82.22
2023-04-16T00:32:06.241Z,81.60
2023-04-16T00:33:08.299Z,81.74
2023-04-16T00:34:11.373Z,81.33
2023-04-16T00:35:13.559Z,81.58
2023-04-16T00:36:16.367Z,81.98
2023-04-16T00:37:18.185Z,81.83
2023-04-16T00:38:20.974Z,81.85
2023-04-16T00:39:26.252Z,81.97
2023-04-16T00:40:30.824Z,81.84
2023-04-16T00:41:32.863Z,81.37
2023-04-16T00:42:37.251Z,81.61
2023-04-16T00:43:39.108Z,81.67
2023-04-16T00:44:41.860Z,82.08
2023-04-16T00:45:44.053Z,81.58
2023-04-16T00:46:47.322Z,81.85
2023-04-16T00:47:49.711Z,82.46
2023-04-16T00:48:54.531Z,82.32
2023-04-16T00:49:56.296Z,82.45
2023-04-16T00:51:01.043Z,82.30
2023-04-16T00:52:03.394Z,82.24
2023-04-16T00:53:06.540Z,82.29
2023-04-16T00:54:08.424Z,82.30
2023-04-16T00:55:13.390Z,81.97
2023-04-16T00:56:17.760Z,82.68
2023-04-16T00:57:23.843Z,82.90
2023-04-16T00:58:26.513Z,82.93
2023-04-16T00:59:30.078Z,83.29
2023-04-16T01:00:31.908Z,82.96
2023-04-16T01:01:34.867Z,82.86
2023-04-16T01:02:36.950Z,82.41
2023-04-16T01:03:41.168Z,82.50
2023-04-16T01:04:43.391Z,82.28
2023-04-16T01:05:49.230Z,82.58
2023-04-16T01:06:51.237Z,82.58
2023-04-16T01:07:54.148Z,82.74
2023-04-16T01:08:55.988Z,82.37
2023-04-16T01:09:58.776Z,82.59
2023-04-16T01:11:00.747Z,82.19
2023-04-16T01:12:05.030Z,82.18
2023-04-16T01:13:06.831Z,82.00
2023-04-16T01:14:09.730Z,82.17
2023-04-16T01:15:11.901Z,82.11
2023-04-16T01:16:14.749Z,82.35
2023-04-16T01:17:16.881Z,82.02
2023-04-16T01:18:20.540Z,82.12
2023-04-16T01:19:22.365Z,82.34
2023-04-16T01:20:25.581Z,82.78
2023-04-16T01:21:28.819Z,82.53
2023-04-16T01:22:31.589Z,82.43
2023-04-16T01:23:34.252Z,82.03
2023-04-16T01:24:39.947Z,82.50
2023-04-16T01:25:45.391Z,82.15
2023-04-16T01:26:48.229Z,82.07
2023-04-16T01:27:50.735Z,81.93
2023-04-16T01:28:53.495Z,81.79
2023-04-16T01:29:56.363Z,81.87
2023-04-16T01:31:08.753Z,81.41
2023-04-16T01:32:32.996Z,81.82
2023-04-16T01:33:34.834Z,81.88
2023-04-16T01:34:37.630Z,81.65
2023-04-16T01:35:40.988Z,81.67
2023-04-16T01:36:45.153Z,81.85
2023-04-16T01:37:46.977Z,81.95
2023-04-16T01:38:50.202Z,81.86
2023-04-16T01:39:52.478Z,82.26
2023-04-16T01:40:57.521Z,82.24
2023-04-16T01:41:59.408Z,82.31
2023-04-16T01:43:02.409Z,82.66
2023-04-16T01:44:04.615Z,82.51
2023-04-16T01:45:08.622Z,82.64
2023-04-16T01:46:16.370Z,82.71
2023-04-16T01:47:19.346Z,83.01
2023-04-16T01:48:21.158Z,82.31
2023-04-16T01:49:24.591Z,82.38
2023-04-16T01:50:26.595Z,82.04
2023-04-16T01:51:29.669Z,81.88
2023-04-16T01:52:33.148Z,81.92
2023-04-16T01:53:37.116Z,82.43
2023-04-16T01:54:39.194Z,82.34
2023-04-16T01:55:42.406Z,82.57
2023-04-16T01:56:44.384Z,82.90
2023-04-16T01:57:47.261Z,82.95
2023-04-16T01:58:49.966Z,82.75
2023-04-16T01:59:54.423Z,82.97
2023-04-16T02:00:57.047Z,82.94
2023-04-16T02:02:02.126Z,82.88
2023-04-16T02:03:04.229Z,83.46
2023-04-16T02:04:08.203Z,83.52
2023-04-16T02:05:10.147Z,83.07
2023-04-16T02:06:12.993Z,82.85
2023-04-16T02:07:14.878Z,83.09
2023-04-16T02:08:19.199Z,83.43
2023-04-16T02:09:22.201Z,83.20
2023-04-16T02:10:25.065Z,83.02
2023-04-16T02:11:27.211Z,82.57
2023-04-16T02:12:31.339Z,83.03
2023-04-16T02:13:33.218Z,83.07
2023-04-16T02:14:36.403Z,83.08
2023-04-16T02:15:38.233Z,83.23
2023-04-16T02:16:41.093Z,83.16
2023-04-16T02:18:10.254Z,83.62
2023-04-16T02:19:13.312Z,83.39
2023-04-16T02:20:18.134Z,83.54
2023-04-16T02:21:28.874Z,83.55
2023-04-16T02:22:30.998Z,83.29
2023-04-16T02:23:35.257Z,83.17
2023-04-16T02:24:37.114Z,83.71
2023-04-16T02:25:45.305Z,83.29
2023-04-16T02:26:48.086Z,83.46
2023-04-16T02:27:53.556Z,83.81
2023-04-16T02:29:09.973Z,83.79
2023-04-16T02:30:18.648Z,84.00
2023-04-16T02:31:22.330Z,83.33
2023-04-16T02:32:25.356Z,83.15
2023-04-16T02:33:27.985Z,83.19
2023-04-16T02:34:36.165Z,83.76
2023-04-16T02:35:39.107Z,83.40
2023-04-16T02:36:42.269Z,83.26
2023-04-16T02:37:44.672Z,83.42
2023-04-16T02:38:48.959Z,83.62
2023-04-16T02:39:51.512Z,83.98
2023-04-16T02:40:54.322Z,83.40
2023-04-16T02:41:56.162Z,83.96
2023-04-16T02:42:59.483Z,83.79
2023-04-16T02:44:01.983Z,83.95
2023-04-16T02:45:05.033Z,84.58
2023-04-16T02:46:06.989Z,84.97
2023-04-16T02:47:09.800Z,84.57
2023-04-16T02:48:11.604Z,84.31
2023-04-16T02:49:14.435Z,84.58
2023-04-16T02:50:16.302Z,84.28
2023-04-16T02:51:19.105Z,84.66
2023-04-16T02:52:21.364Z,84.06
2023-04-16T02:53:24.190Z,84.27
2023-04-16T02:54:27.351Z,84.89
2023-04-16T02:55:30.468Z,84.73
2023-04-16T02:56:32.278Z,84.83
2023-04-16T02:57:35.351Z,84.88
2023-04-16T02:58:37.245Z,85.02
2023-04-16T02:59:40.123Z,85.03
2023-04-16T03:00:42.355Z,85.22
2023-04-16T03:01:45.798Z,85.13
2023-04-16T03:02:47.844Z,85.33
2023-04-16T03:03:50.778Z,85.20
2023-04-16T03:04:52.696Z,85.16
2023-04-16T03:05:55.668Z,84.62
2023-04-16T03:06:57.535Z,84.41
2023-04-16T03:08:00.380Z,84.75
2023-04-16T03:09:02.307Z,85.44
2023-04-16T03:10:08.262Z,85.40
2023-04-16T03:11:10.267Z,85.92
2023-04-16T03:12:13.201Z,86.05
2023-04-16T03:13:15.325Z,86.08
2023-04-16T03:14:20.867Z,86.34
2023-04-16T03:15:22.992Z,86.38
2023-04-16T03:16:26.079Z,86.77
2023-04-16T03:17:28.398Z,86.36
2023-04-16T03:18:32.013Z,86.51
2023-04-16T03:19:33.865Z,86.70
2023-04-16T03:20:36.704Z,87.12
2023-04-16T03:21:38.544Z,86.83
2023-04-16T03:22:41.378Z,87.24
2023-04-16T03:23:43.242Z,86.98
2023-04-16T03:24:46.065Z,86.81
2023-04-16T03:25:49.247Z,86.96
2023-04-16T03:26:54.406Z,87.28
2023-04-16T03:27:58.748Z,87.46
2023-04-16T03:29:02.090Z,87.62
2023-04-16T03:30:07.185Z,87.45
2023-04-16T03:31:11.496Z,87.68
2023-04-16T03:32:13.950Z,87.70
2023-04-16T03:33:16.817Z,88.07
2023-04-16T03:34:18.717Z,88.15
2023-04-16T03:35:21.975Z,87.89
2023-04-16T03:36:25.301Z,87.67
2023-04-16T03:37:27.192Z,87.75
2023-04-16T03:38:29.971Z,87.96
2023-04-16T03:39:33.897Z,88.01
2023-04-16T03:40:36.667Z,88.15
2023-04-16T03:41:39.801Z,88.35
2023-04-16T03:42:42.848Z,88.40
2023-04-16T03:43:44.783Z,88.60
2023-04-16T03:44:47.628Z,88.93
2023-04-16T03:45:50.948Z,88.50
2023-04-16T03:46:57.021Z,88.80
2023-04-16T03:47:59.089Z,88.83
2023-04-16T03:49:02.395Z,89.17
2023-04-16T03:50:04.803Z,89.21
2023-04-16T03:51:07.577Z,89.21
2023-04-16T03:52:09.536Z,89.26
2023-04-16T03:53:12.301Z,89.61
2023-04-16T03:54:14.651Z,89.65
2023-04-16T03:55:21.274Z,89.87
2023-04-16T03:56:23.136Z,89.55
2023-04-16T03:57:29.062Z,90.00
2023-04-16T03:58:36.517Z,89.98
2023-04-16T03:59:39.271Z,90.17
2023-04-16T04:00:41.721Z,89.86
2023-04-16T04:01:48.992Z,89.91
2023-04-16T04:02:51.098Z,89.90
2023-04-16T04:03:56.366Z,89.91
2023-04-16T04:04:58.655Z,90.14
2023-04-16T04:06:01.535Z,90.17
2023-04-16T04:07:05.517Z,89.99
2023-04-16T04:08:08.715Z,89.95
2023-04-16T04:09:11.733Z,89.97
2023-04-16T04:10:14.570Z,89.96
2023-04-16T04:11:17.523Z,90.20
2023-04-16T04:12:20.581Z,90.18
2023-04-16T04:13:24.380Z,90.19
2023-04-16T04:14:28.274Z,90.17
2023-04-16T04:15:30.234Z,89.98
2023-04-16T04:16:33.159Z,90.07
2023-04-16T04:17:35.421Z,90.28
2023-04-16T04:18:38.695Z,90.16
2023-04-16T04:19:47.133Z,90.21
2023-04-16T04:20:54.548Z,90.00
2023-04-16T04:22:00.136Z,90.41
2023-04-16T04:23:02.931Z,90.49
2023-04-16T04:24:05.460Z,90.35
2023-04-16T04:25:10.886Z,90.47
2023-04-16T04:26:12.746Z,90.30
2023-04-16T04:27:16.608Z,90.66
2023-04-16T04:28:18.453Z,90.83
2023-04-16T04:29:22.640Z,90.52
2023-04-16T04:30:25.424Z,90.61
2023-04-16T04:31:28.221Z,90.43
2023-04-16T04:32:31.289Z,90.26
2023-04-16T04:33:34.409Z,90.39
2023-04-16T04:34:36.639Z,90.57
2023-04-16T04:35:39.818Z,90.33
2023-04-16T04:36:43.843Z,90.29
2023-04-16T04:37:48.469Z,90.31
2023-04-16T04:38:53.837Z,90.28
2023-04-16T04:39:57.657Z,90.40
2023-04-16T04:40:59.761Z,90.26
2023-04-16T04:42:05.329Z,90.26
2023-04-16T04:43:07.288Z,90.51
2023-04-16T04:44:10.089Z,90.39
2023-04-16T04:45:13.594Z,90.38
2023-04-16T04:46:17.627Z,90.51
2023-04-16T04:47:19.639Z,90.13
2023-04-16T04:48:26.436Z,90.34
2023-04-16T04:49:30.536Z,90.29
2023-04-16T04:50:33.291Z,90.08
2023-04-16T04:51:35.894Z,90.44
2023-04-16T04:52:39.648Z,90.31
2023-04-16T04:53:42.496Z,90.00
2023-04-16T04:54:45.862Z,90.19
2023-04-16T04:55:50.899Z,90.13
2023-04-16T04:56:56.726Z,90.52
2023-04-16T04:57:58.554Z,90.33
2023-04-16T04:59:02.399Z,90.44
2023-04-16T05:00:04.788Z,90.68
2023-04-16T05:01:17.320Z,90.76
2023-04-16T05:02:22.706Z,91.34
2023-04-16T05:03:25.580Z,91.55
2023-04-16T05:04:27.421Z,91.77
2023-04-16T05:05:30.453Z,91.67
2023-04-16T05:06:32.289Z,91.78
2023-04-16T05:07:35.163Z,92.16
2023-04-16T05:08:37.053Z,91.89
2023-04-16T05:09:39.785Z,92.35
2023-04-16T05:10:41.604Z,92.56
2023-04-16T05:11:44.817Z,92.33
2023-04-16T05:12:48.928Z,92.32
2023-04-16T05:13:52.029Z,92.33
2023-04-16T05:14:53.838Z,92.71
2023-04-16T05:15:56.636Z,92.47
2023-04-16T05:16:59.817Z,92.69
2023-04-16T05:18:02.758Z,93.14
2023-04-16T05:19:04.993Z,93.45
2023-04-16T05:20:09.443Z,93.48
2023-04-16T05:21:11.363Z,93.85
2023-04-16T05:22:14.164Z,93.19
2023-04-16T05:23:16.018Z,93.32
2023-04-16T05:24:18.840Z,92.76
2023-04-16T05:25:21.008Z,93.63
2023-04-16T05:26:23.821Z,93.39
2023-04-16T05:27:25.856Z,93.79
2023-04-16T05:28:28.709Z,93.76
2023-04-16T05:29:30.620Z,93.66
2023-04-16T05:30:33.435Z,93.63
2023-04-16T05:31:35.236Z,93.57
2023-04-16T05:32:40.616Z,93.66
2023-04-16T05:33:42.747Z,93.48
2023-04-16T05:34:45.527Z,93.23
2023-04-16T05:35:47.298Z,93.26
2023-04-16T05:36:50.324Z,93.70
2023-04-16T05:37:52.129Z,93.85
2023-04-16T05:38:54.955Z,93.38
2023-04-16T05:39:56.847Z,93.64
2023-04-16T05:40:59.907Z,93.52
2023-04-16T05:42:01.769Z,93.90
2023-04-16T05:43:04.654Z,93.53
2023-04-16T05:44:06.493Z,93.87
2023-04-16T05:45:10.643Z,93.99
2023-04-16T05:46:12.577Z,93.43
2023-04-16T05:47:15.499Z,93.34
2023-04-16T05:48:20.080Z,94.14
2023-04-16T05:49:23.374Z,93.80
2023-04-16T05:50:25.429Z,93.73
2023-04-16T05:51:28.225Z,94.49
2023-04-16T05:52:30.180Z,93.75
2023-04-16T05:53:33.002Z,94.03
2023-04-16T05:54:34.820Z,94.46
2023-04-16T05:55:37.676Z,95.61
2023-04-16T05:56:39.439Z,94.51
2023-04-16T05:57:42.233Z,94.24
2023-04-16T05:58:44.530Z,94.17
2023-04-16T05:59:47.588Z,94.23
2023-04-16T06:00:49.405Z,94.26
2023-04-16T06:01:52.237Z,94.02
2023-04-16T06:02:54.171Z,94.15
2023-04-16T06:03:58.437Z,94.88
2023-04-16T06:05:01.381Z,94.49
2023-04-16T06:06:03.275Z,93.94
2023-04-16T06:07:06.200Z,94.71
2023-04-16T06:08:08.032Z,94.28
2023-04-16T06:09:11.744Z,94.29
2023-04-16T06:10:13.850Z,94.54
2023-04-16T06:11:16.946Z,94.73
2023-04-16T06:12:18.781Z,94.85
2023-04-16T06:13:21.698Z,95.61
2023-04-16T06:14:23.840Z,95.87
2023-04-16T06:15:26.853Z,95.67
2023-04-16T06:16:28.714Z,95.81
2023-04-16T06:17:31.651Z,95.90
2023-04-16T06:18:33.424Z,95.44
2023-04-16T06:19:37.523Z,96.00
2023-04-16T06:20:39.413Z,95.62
2023-04-16T06:21:42.176Z,95.67
2023-04-16T06:22:44.063Z,95.91
2023-04-16T06:23:46.967Z,96.03
2023-04-16T06:24:48.932Z,96.40
2023-04-16T06:25:51.794Z,96.20
2023-04-16T06:26:54.636Z,96.22
2023-04-16T06:27:57.399Z,95.55
2023-04-16T06:28:59.220Z,95.47
2023-04-16T06:30:02.089Z,95.40
2023-04-16T06:31:04.486Z,95.34
2023-04-16T06:32:09.176Z,94.90
2023-04-16T06:33:12.369Z,94.81
2023-04-16T06:34:14.213Z,94.47
2023-04-16T06:35:20.109Z,94.06
2023-04-16T06:36:22.313Z,93.73
2023-04-16T06:37:25.305Z,93.92
2023-04-16T06:38:27.058Z,93.90
2023-04-16T06:39:30.200Z,93.92
2023-04-16T06:40:32.005Z,93.89
2023-04-16T06:41:34.902Z,94.29
2023-04-16T06:42:36.811Z,94.12
2023-04-16T06:43:39.717Z,93.86
2023-04-16T06:44:41.534Z,93.43
2023-04-16T06:45:44.340Z,94.23
2023-04-16T06:46:46.200Z,93.52
2023-04-16T06:47:49.698Z,93.54
2023-04-16T06:48:51.792Z,93.17
2023-04-16T06:49:54.544Z,93.39
2023-04-16T06:50:57.711Z,93.15
2023-04-16T06:52:00.805Z,93.67
2023-04-16T06:53:02.670Z,93.71
2023-04-16T06:54:05.589Z,94.40
2023-04-16T06:55:09.685Z,94.18
2023-04-16T06:56:12.453Z,93.66
2023-04-16T06:57:14.314Z,93.01
2023-04-16T06:58:17.138Z,92.42
2023-04-16T06:59:18.908Z,92.02
2023-04-16T07:00:21.774Z,91.67
2023-04-16T07:01:23.749Z,90.98
2023-04-16T07:02:26.869Z,90.92
2023-04-16T07:04:31.639Z,90.05
2023-04-16T07:05:34.461Z,90.84
2023-04-16T07:06:37.596Z,93.45
2023-04-16T07:07:40.500Z,92.00
2023-04-16T07:08:42.277Z,90.96
2023-04-16T07:09:45.238Z,90.10
2023-04-16T07:10:47.202Z,89.35
2023-04-16T07:11:50.025Z,89.42
2023-04-16T07:12:51.986Z,89.91
2023-04-16T07:13:54.837Z,88.88
2023-04-16T07:14:56.659Z,88.52
2023-04-16T07:15:59.446Z,88.47
2023-04-16T07:17:01.286Z,86.97
2023-04-16T07:18:04.396Z,86.24
2023-04-16T07:19:06.248Z,86.49
2023-04-16T07:20:10.198Z,85.46
2023-04-16T07:21:12.008Z,86.06
2023-04-16T07:22:16.572Z,86.27
2023-04-16T07:23:18.438Z,85.47
2023-04-16T07:24:21.173Z,86.95
2023-04-16T07:25:24.102Z,86.27
2023-04-16T07:26:26.345Z,85.78
2023-04-16T07:27:29.124Z,85.13
2023-04-16T07:28:31.008Z,84.77
2023-04-16T07:29:33.817Z,83.90
2023-04-16T07:30:36.038Z,83.76
2023-04-16T07:31:39.565Z,86.03
2023-04-16T07:32:41.622Z,84.80
2023-04-16T07:33:44.465Z,83.56
2023-04-16T07:34:46.420Z,83.77
2023-04-16T07:35:49.433Z,82.90
2023-04-16T07:36:51.267Z,82.59
2023-04-16T07:37:55.441Z,82.53
2023-04-16T07:38:59.227Z,82.33
2023-04-16T07:40:01.970Z,82.01
2023-04-16T07:41:04.745Z,82.06
2023-04-16T07:42:06.955Z,81.35
2023-04-16T07:43:10.085Z,80.59
2023-04-16T07:44:12.885Z,80.23
2023-04-16T07:45:16.088Z,79.65
2023-04-16T07:46:17.948Z,79.72
2023-04-16T07:47:21.144Z,78.99
2023-04-16T07:48:22.961Z,78.91
2023-04-16T07:49:26.137Z,78.56
2023-04-16T07:50:29.076Z,78.21
2023-04-16T07:51:31.348Z,77.41
2023-04-16T07:52:34.155Z,77.57
2023-04-16T07:53:37.347Z,77.42
2023-04-16T07:54:40.529Z,77.46
2023-04-16T07:55:42.296Z,76.84
2023-04-16T07:56:45.040Z,76.66
2023-04-16T07:57:46.844Z,76.84
2023-04-16T07:58:49.597Z,76.16
2023-04-16T07:59:52.698Z,75.87
2023-04-16T08:00:55.347Z,75.45
2023-04-16T08:01:58.231Z,74.60
2023-04-16T08:03:00.308Z,74.17
2023-04-16T08:04:03.533Z,74.88
2023-04-16T08:05:06.399Z,75.28
2023-04-16T08:06:09.164Z,74.65
2023-04-16T08:07:11.029Z,75.26
2023-04-16T08:08:13.806Z,74.50
2023-04-16T08:09:17.108Z,73.48
2023-04-16T08:10:20.225Z,73.17
2023-04-16T08:11:23.015Z,73.60
2023-04-16T08:12:24.909Z,73.74
2023-04-16T08:13:27.703Z,73.79
2023-04-16T08:14:30.820Z,74.01
2023-04-16T08:15:33.748Z,73.64
2023-04-16T08:16:35.820Z,73.98
2023-04-16T08:17:39.529Z,73.00
2023-04-16T08:18:41.405Z,73.04
2023-04-16T08:19:44.796Z,73.55
2023-04-16T08:20:46.699Z,73.15
2023-04-16T08:21:49.471Z,72.67
2023-04-16T08:22:52.318Z,72.56
2023-04-16T08:23:54.152Z,73.09
2023-04-16T08:24:58.241Z,73.15
2023-04-16T08:26:01.442Z,73.22
2023-04-16T08:27:15.467Z,73.26
2023-04-16T08:28:21.665Z,71.56
2023-04-16T08:29:26.213Z,71.71
2023-04-16T08:30:29.455Z,71.73
2023-04-16T08:31:31.828Z,71.29
2023-04-16T08:32:34.904Z,71.79
2023-04-16T08:33:36.790Z,71.64
2023-04-16T08:34:39.823Z,71.22
2023-04-16T08:35:41.717Z,70.96
2023-04-16T08:36:44.532Z,70.69
2023-04-16T08:37:47.333Z,70.43
2023-04-16T08:38:49.162Z,70.69
2023-04-16T08:39:51.894Z,71.07
2023-04-16T08:40:55.153Z,70.63
2023-04-16T08:41:58.148Z,70.20
2023-04-16T08:43:01.413Z,70.06
2023-04-16T08:44:09.326Z,69.86
2023-04-16T08:45:14.229Z,69.78
2023-04-16T08:46:18.072Z,69.18
2023-04-16T08:47:22.103Z,69.96
2023-04-16T08:48:25.664Z,70.03
2023-04-16T08:49:27.869Z,69.81
2023-04-16T08:50:30.971Z,69.62
2023-04-16T08:51:35.399Z,69.35
2023-04-16T08:52:39.208Z,69.54
2023-04-16T08:53:48.039Z,70.11
2023-04-16T08:54:57.175Z,68.57
2023-04-16T08:56:05.387Z,67.92
2023-04-16T08:57:07.486Z,67.78
2023-04-16T08:58:15.479Z,67.26
2023-04-16T08:59:17.849Z,66.85
2023-04-16T09:00:21.226Z,67.64
2023-04-16T09:01:25.012Z,67.65
2023-04-16T09:02:28.107Z,66.95
2023-04-16T09:03:31.885Z,66.56
2023-04-16T09:04:37.891Z,66.59
2023-04-16T09:05:41.086Z,65.55
2023-04-16T09:06:43.360Z,65.21
2023-04-16T09:07:47.112Z,64.23
2023-04-16T09:08:49.472Z,64.14
2023-04-16T09:09:54.202Z,63.50
2023-04-16T09:10:56.496Z,63.35
2023-04-16T09:12:00.769Z,62.83
2023-04-16T09:13:02.561Z,62.93
2023-04-16T09:14:05.880Z,62.69
2023-04-16T09:15:10.110Z,61.79
2023-04-16T09:16:13.157Z,62.25
2023-04-16T09:17:16.803Z,62.28
2023-04-16T09:18:20.399Z,62.78
2023-04-16T09:19:22.303Z,64.00
2023-04-16T09:20:25.422Z,64.02
2023-04-16T09:21:27.971Z,63.35
2023-04-16T09:22:30.736Z,63.23
2023-04-16T09:23:32.608Z,62.70
2023-04-16T09:24:35.560Z,63.08
2023-04-16T09:25:38.443Z,62.80
2023-04-16T09:26:43.273Z,62.88
2023-04-16T09:27:50.735Z,62.85
2023-04-16T09:28:52.549Z,63.00
2023-04-16T09:29:55.392Z,63.16
2023-04-16T09:31:08.209Z,63.04
2023-04-16T09:32:12.520Z,62.58
2023-04-16T09:33:22.063Z,62.57
2023-04-16T09:34:24.865Z,62.11
2023-04-16T09:35:26.686Z,61.92
2023-04-16T09:36:29.558Z,61.80
2023-04-16T09:37:31.539Z,61.82
2023-04-16T09:38:47.776Z,61.83
2023-04-16T09:39:54.088Z,61.74
2023-04-16T09:41:08.107Z,61.78
2023-04-16T09:42:09.967Z,62.10
2023-04-16T09:43:15.508Z,61.71
2023-04-16T09:44:17.300Z,61.61
2023-04-16T09:45:20.088Z,61.73
2023-04-16T09:46:22.441Z,61.73
2023-04-16T09:47:27.002Z,62.06
2023-04-16T09:48:30.139Z,62.41
2023-04-16T09:49:35.684Z,61.93
2023-04-16T09:50:37.468Z,62.35
2023-04-16T09:51:42.237Z,62.24
2023-04-16T09:52:45.210Z,62.51
2023-04-16T09:53:48.039Z,62.13
2023-04-16T09:54:50.942Z,62.37
2023-04-16T09:55:53.796Z,62.31
2023-04-16T09:56:57.097Z,62.41
2023-04-16T09:58:01.160Z,62.58
2023-04-16T09:59:05.809Z,62.48
2023-04-16T10:00:09.273Z,62.47
2023-04-16T10:01:13.749Z,62.46
2023-04-16T10:02:16.602Z,62.51
2023-04-16T10:03:19.628Z,62.93
2023-04-16T10:04:22.504Z,63.01
2023-04-16T10:05:26.443Z,63.26
2023-04-16T10:06:31.169Z,63.17
2023-04-16T10:07:34.708Z,63.10
2023-04-16T10:08:37.617Z,62.56
2023-04-16T10:09:39.616Z,62.68
2023-04-16T10:10:42.623Z,62.49
2023-04-16T10:11:45.915Z,61.85
2023-04-16T10:12:47.833Z,62.19
2023-04-16T10:13:51.432Z,61.40
2023-04-16T10:14:54.636Z,61.26
2023-04-16T10:15:57.827Z,60.92
2023-04-16T10:17:00.010Z,61.09
2023-04-16T10:18:03.564Z,61.28
2023-04-16T10:19:05.483Z,61.77
2023-04-16T10:20:08.946Z,61.25
2023-04-16T10:21:12.089Z,61.26
2023-04-16T10:22:15.005Z,61.68
2023-04-16T10:23:16.899Z,61.64
2023-04-16T10:24:20.120Z,61.05
2023-04-16T10:25:22.102Z,61.46
2023-04-16T10:26:25.358Z,61.18
2023-04-16T10:27:27.319Z,60.10
2023-04-16T10:28:30.213Z,58.81
2023-04-16T10:29:33.811Z,57.58
2023-04-16T10:30:37.361Z,57.36
2023-04-16T10:31:40.776Z,57.07
2023-04-16T10:32:42.650Z,57.15
2023-04-16T10:33:46.420Z,56.30
2023-04-16T10:34:48.397Z,55.60
2023-04-16T10:36:01.369Z,54.39
2023-04-16T10:37:10.512Z,53.74
2023-04-16T10:38:22.723Z,52.39
2023-04-16T10:39:28.324Z,53.33
2023-04-16T10:40:30.321Z,53.84
2023-04-16T10:41:33.569Z,54.42
2023-04-16T10:42:35.474Z,54.33
2023-04-16T10:43:42.482Z,54.41
2023-04-16T10:44:46.228Z,54.57
2023-04-16T10:45:50.403Z,55.10
2023-04-16T10:46:56.003Z,55.53
2023-04-16T10:47:57.913Z,55.69
2023-04-16T10:49:02.801Z,55.61
2023-04-16T10:50:16.987Z,55.96
2023-04-16T10:51:27.701Z,56.11
2023-04-16T10:52:30.578Z,55.77
2023-04-16T10:53:33.480Z,55.30
2023-04-16T10:54:37.001Z,55.63
2023-04-16T10:55:39.217Z,55.67
2023-04-16T10:56:42.414Z,55.74
2023-04-16T10:57:54.477Z,56.10
2023-04-16T10:58:56.475Z,55.96
2023-04-16T10:59:59.925Z,56.17
2023-04-16T11:01:07.204Z,56.01
2023-04-16T11:02:13.177Z,56.09
2023-04-16T11:03:16.944Z,56.37
2023-04-16T11:04:31.041Z,56.68
2023-04-16T11:05:46.712Z,56.34
2023-04-16T11:07:02.869Z,55.97
2023-04-16T11:08:14.938Z,56.50
2023-04-16T11:09:45.652Z,55.88
2023-04-16T11:10:48.574Z,56.25
2023-04-16T11:11:50.484Z,55.46
2023-04-16T11:12:54.164Z,54.57
2023-04-16T11:13:57.085Z,53.85
2023-04-16T11:15:01.184Z,53.01
2023-04-16T11:16:04.760Z,52.42
2023-04-16T11:17:07.741Z,52.61
2023-04-16T11:18:11.188Z,52.18
2023-04-16T11:19:16.807Z,51.65
2023-04-16T11:20:23.030Z,52.18
2023-04-16T11:21:25.434Z,51.97
2023-04-16T11:22:28.244Z,52.54
2023-04-16T11:23:30.451Z,52.67
2023-04-16T11:24:33.600Z,52.42
2023-04-16T11:25:35.404Z,52.48
2023-04-16T11:26:38.212Z,52.65
2023-04-16T11:27:40.935Z,52.52
2023-04-16T11:28:43.744Z,53.09
2023-04-16T11:29:47.566Z,53.13
2023-04-16T11:30:50.619Z,53.40
2023-04-16T11:31:55.014Z,54.06
2023-04-16T11:32:58.177Z,54.07
2023-04-16T11:34:01.064Z,53.85
2023-04-16T11:35:04.779Z,53.96
2023-04-16T11:36:07.871Z,53.52
2023-04-16T11:37:09.662Z,53.11
2023-04-16T11:38:12.441Z,53.07
2023-04-16T11:39:14.733Z,52.98
2023-04-16T11:40:17.532Z,52.85
2023-04-16T11:41:20.462Z,52.52
2023-04-16T11:42:24.136Z,52.82
2023-04-16T11:43:26.710Z,52.46
2023-04-16T11:44:30.362Z,52.44
2023-04-16T11:45:33.378Z,52.09
2023-04-16T11:46:38.484Z,52.19
2023-04-16T11:47:46.656Z,52.24
2023-04-16T11:48:50.033Z,52.13
2023-04-16T11:49:53.011Z,51.84
2023-04-16T11:50:57.999Z,51.75
2023-04-16T11:52:01.403Z,51.79
2023-04-16T11:53:05.030Z,52.10
2023-04-16T11:54:10.353Z,51.90
2023-04-16T11:55:14.057Z,50.82
2023-04-16T11:56:17.549Z,51.08
2023-04-16T11:57:25.724Z,50.61
2023-04-16T11:58:27.551Z,50.81
2023-04-16T11:59:30.324Z,51.00
2023-04-16T12:00:35.129Z,50.41
2023-04-16T12:01:39.158Z,50.42
2023-04-16T12:02:42.644Z,50.58
2023-04-16T12:03:49.550Z,50.61
2023-04-16T12:04:54.070Z,50.71
2023-04-16T12:06:07.825Z,50.65
2023-04-16T12:07:11.775Z,51.12
2023-04-16T12:08:28.760Z,50.35
2023-04-16T12:09:31.684Z,50.65
2023-04-16T12:10:35.145Z,50.95
2023-04-16T12:11:41.463Z,50.81
2023-04-16T12:12:44.201Z,51.16
2023-04-16T12:14:08.007Z,50.36
2023-04-16T12:15:11.707Z,50.52
2023-04-16T12:16:19.461Z,50.59
2023-04-16T12:17:22.751Z,50.32
2023-04-16T12:18:27.180Z,50.48
2023-04-16T12:19:31.473Z,50.22
2023-04-16T12:20:39.625Z,50.60
2023-04-16T12:21:43.988Z,50.46
2023-04-16T12:22:47.383Z,50.09
2023-04-16T12:23:54.621Z,49.90
2023-04-16T12:24:59.649Z,50.21
2023-04-16T12:26:10.629Z,50.07
2023-04-16T12:27:12.974Z,49.83
2023-04-16T12:28:16.599Z,49.96
2023-04-16T12:29:20.532Z,49.60
2023-04-16T12:30:24.308Z,48.94
2023-04-16T12:31:37.164Z,47.43
2023-04-16T12:32:40.021Z,46.78
2023-04-16T12:33:42.490Z,46.29
2023-04-16T12:34:52.423Z,45.55
2023-04-16T12:35:55.193Z,45.75
2023-04-16T12:37:09.390Z,44.74
2023-04-16T12:38:15.016Z,45.40
2023-04-16T12:39:17.804Z,45.34
2023-04-16T12:40:19.613Z,45.33
2023-04-16T12:41:22.433Z,44.95
2023-04-16T12:42:24.225Z,44.95
2023-04-16T12:43:27.547Z,44.96
2023-04-16T12:44:29.518Z,45.04
2023-04-16T12:45:32.300Z,45.49
2023-04-16T12:46:34.112Z,45.60
2023-04-16T12:47:36.986Z,45.84
2023-04-16T12:48:38.800Z,46.06
2023-04-16T12:49:41.772Z,46.08
2023-04-16T12:50:46.018Z,46.19
2023-04-16T12:51:48.792Z,46.46
2023-04-16T12:52:50.751Z,45.92
2023-04-16T12:53:54.064Z,45.75
2023-04-16T12:54:56.272Z,45.61
2023-04-16T12:55:59.453Z,45.46
2023-04-16T12:57:01.652Z,45.44
2023-04-16T12:58:04.482Z,45.51
2023-04-16T12:59:06.327Z,45.35
2023-04-16T13:00:10.935Z,45.32
2023-04-16T13:01:12.848Z,45.10
2023-04-16T13:02:15.752Z,45.44
2023-04-16T13:03:18.776Z,45.81
2023-04-16T13:04:22.021Z,46.49
2023-04-16T13:05:26.695Z,46.13
2023-04-16T13:06:31.410Z,45.85
2023-04-16T13:07:34.238Z,46.19
2023-04-16T13:08:36.147Z,46.01
2023-04-16T13:09:39.880Z,45.01
2023-04-16T13:10:41.935Z,44.83
2023-04-16T13:11:44.700Z,44.24
2023-04-16T13:12:46.675Z,43.85
2023-04-16T13:13:49.571Z,43.64
2023-04-16T13:14:51.384Z,43.29
2023-04-16T13:15:54.276Z,43.22
2023-04-16T13:16:57.069Z,42.88
2023-04-16T13:17:58.947Z,42.74
2023-04-16T13:19:02.522Z,42.61
2023-04-16T13:20:05.026Z,42.15
2023-04-16T13:21:07.946Z,42.10
2023-04-16T13:22:11.276Z,42.58
2023-04-16T13:23:14.200Z,42.46
2023-04-16T13:24:16.047Z,42.74
2023-04-16T13:25:18.887Z,42.18
2023-04-16T13:26:22.186Z,42.16
2023-04-16T13:27:24.049Z,42.19
2023-04-16T13:28:27.478Z,41.96
2023-04-16T13:29:30.447Z,41.72
2023-04-16T13:30:33.448Z,41.89
2023-04-16T13:31:36.982Z,41.62
2023-04-16T13:32:38.881Z,41.29
2023-04-16T13:33:41.643Z,41.29
2023-04-16T13:34:43.686Z,41.36
2023-04-16T13:35:46.493Z,41.59
2023-04-16T13:36:48.550Z,41.65
2023-04-16T13:37:53.077Z,42.16
2023-04-16T13:38:54.872Z,42.64
2023-04-16T13:39:57.630Z,43.06